Time;durP1;ratioP1;P1;durP2;ratioP2;P2;SDS_P1;SDS_P2;PMS_P1;PMS_P2;Temp;Humidity;BMP_temperature;BMP_pressure;BME280_temperature;BME280_humidity;BME280_pressure;Samples;Min_cycle;Max_cycle;Signal;HPM_P1;HPM_P2
2021/04/03 05:16:10;;;;;;;13.25;2.78;;;20.20;37.40;;;;;;5205945;22;20629;-58
2021/04/03 05:18:36;;;;;;;12.27;2.60;;;20.10;37.90;;;;;;5074135;28;20048;-58
2021/04/03 05:21:03;;;;;;;19.65;3.47;;;20.10;38.30;;;;;;5073793;28;20087;-55
2021/04/03 05:23:29;;;;;;;9.18;2.78;;;20.10;38.30;;;;;;5074273;28;20042;-56
2021/04/03 05:25:54;;;;;;;15.13;2.67;;;20.10;38.10;;;;;;5074048;28;20389;-60
2021/04/03 05:28:20;;;;;;;7.90;2.25;;;20.20;38.30;;;;;;5076112;28;20058;-58
2021/04/03 05:30:45;;;;;;;13.40;3.63;;;20.20;38.30;;;;;;5077972;28;20040;-57
2021/04/03 05:33:11;;;;;;;7.75;2.22;;;20.20;38.40;;;;;;5077926;28;20060;-58
2021/04/03 05:35:37;;;;;;;10.07;2.35;;;20.20;38.40;;;;;;5059922;28;20063;-58
2021/04/03 05:38:03;;;;;;;13.05;2.80;;;20.30;38.40;;;;;;5077734;28;20040;-54
2021/04/03 05:40:29;;;;;;;8.48;2.55;;;20.30;38.30;;;;;;5076667;28;20039;-56
2021/04/03 05:42:55;;;;;;;9.93;2.70;;;20.30;38.30;;;;;;5077355;28;20036;-57
2021/04/03 05:45:25;;;;;;;16.50;3.08;;;20.40;38.30;;;;;;5077669;28;20370;-53
2021/04/03 05:47:51;;;;;;;14.63;3.13;;;20.40;38.10;;;;;;5077633;28;20037;-57
2021/04/03 05:50:16;;;;;;;16.70;3.25;;;20.40;38.20;;;;;;5077306;28;20434;-56
2021/04/03 05:52:43;;;;;;;12.95;3.00;;;20.40;38.20;;;;;;5077526;28;20091;-54
2021/04/03 05:55:09;;;;;;;13.70;3.17;;;20.40;38.30;;;;;;5077495;28;20040;-55
2021/04/03 05:57:36;;;;;;;15.25;3.15;;;20.50;38.10;;;;;;5077175;28;20049;-55
2021/04/03 06:00:04;;;;;;;13.02;2.70;;;20.50;38.10;;;;;;5077686;28;20116;-54
2021/04/03 06:02:35;;;;;;;7.93;2.63;;;20.50;38.10;;;;;;5077011;28;20033;-58
2021/04/03 06:05:01;;;;;;;7.10;2.28;;;20.50;38.10;;;;;;5077072;28;20028;-57
2021/04/03 06:07:27;;;;;;;12.40;2.90;;;20.60;38.30;;;;;;5077699;28;20482;-55
2021/04/03 06:09:54;;;;;;;9.82;2.40;;;20.60;38.30;;;;;;5076952;28;20115;-56
2021/04/03 06:12:39;;;;;;;7.25;2.08;;;20.60;38.30;;;;;;5076906;28;20423;-56
2021/04/03 06:15:05;;;;;;;10.13;2.35;;;20.60;38.30;;;;;;5076716;28;20417;-54
2021/04/03 06:17:31;;;;;;;10.77;2.70;;;20.70;38.30;;;;;;5077188;28;20052;-55
2021/04/03 06:19:58;;;;;;;9.70;2.28;;;20.70;38.40;;;;;;5075600;28;20032;-55
2021/04/03 06:22:24;;;;;;;9.65;2.60;;;20.70;38.40;;;;;;5077075;28;20036;-55
2021/04/03 06:25:03;;;;;;;10.00;2.42;;;20.70;39.20;;;;;;5076718;28;20055;-55
2021/04/03 06:27:29;;;;;;;11.18;2.85;;;20.70;38.50;;;;;;5077287;28;20029;-51
2021/04/03 06:29:56;;;;;;;19.90;3.45;;;20.70;38.30;;;;;;5075661;28;20362;-55
2021/04/03 06:32:23;;;;;;;10.77;3.05;;;20.70;38.50;;;;;;5076992;28;20039;-54
2021/04/03 06:34:51;;;;;;;11.73;2.85;;;20.70;38.50;;;;;;5076803;28;20031;-54
2021/04/03 06:37:36;;;;;;;12.48;2.67;;;20.70;38.50;;;;;;5076170;28;20044;-53
2021/04/03 06:40:09;;;;;;;15.77;2.22;;;20.70;38.50;;;;;;5075916;28;20454;-53
2021/04/03 06:42:39;;;;;;;9.73;2.17;;;20.70;38.50;;;;;;5076689;28;20068;-56
2021/04/03 06:45:24;;;;;;;10.88;3.10;;;20.70;38.50;;;;;;5076563;28;20107;-56
2021/04/03 06:47:56;;;;;;;12.77;2.70;;;20.80;38.50;;;;;;5076227;28;20034;-53
2021/04/03 06:50:24;;;;;;;11.20;2.80;;;20.80;38.70;;;;;;5076515;28;20036;-58
2021/04/03 06:52:50;;;;;;;11.35;2.88;;;20.80;38.70;;;;;;5076435;28;20421;-53
2021/04/03 06:55:18;;;;;;;8.52;2.88;;;20.80;38.80;;;;;;5074925;28;20043;-53
2021/04/03 06:57:45;;;;;;;11.73;2.88;;;20.80;38.90;;;;;;5076222;28;20106;-54
2021/04/03 07:00:13;;;;;;;17.17;2.95;;;20.90;39.00;;;;;;5075614;28;20032;-52
2021/04/03 07:02:58;;;;;;;8.00;2.90;;;20.90;39.10;;;;;;5074520;28;20043;-54
2021/04/03 07:05:26;;;;;;;10.23;2.85;;;20.90;39.20;;;;;;5073188;28;20045;-52
2021/04/03 07:07:55;;;;;;;9.93;3.45;;;20.90;39.20;;;;;;5076034;28;20036;-55
2021/04/03 07:10:20;;;;;;;10.25;2.75;;;20.90;39.30;;;;;;5074969;28;20038;-53
2021/04/03 07:12:48;;;;;;;8.90;2.42;;;20.90;39.50;;;;;;5073939;28;20028;-53
2021/04/03 07:15:14;;;;;;;7.65;2.47;;;20.90;39.50;;;;;;5075005;28;20032;-54
2021/04/03 07:17:42;;;;;;;9.77;3.03;;;20.90;39.60;;;;;;5074342;28;20036;-59
2021/04/03 07:20:15;;;;;;;9.75;3.17;;;20.90;39.60;;;;;;5075835;28;20051;-53
2021/04/03 07:22:45;;;;;;;;;;;21.00;39.60;;;;;;5058906;28;20362;-53
2021/04/03 07:25:12;;;;;;;4.53;1.80;;;21.00;39.60;;;;;;5075744;28;19928;-52
2021/04/03 07:27:40;;;;;;;9.32;3.00;;;20.90;39.60;;;;;;5075879;28;20469;-57
2021/04/03 07:30:06;;;;;;;6.82;2.50;;;21.00;39.60;;;;;;5075786;28;20068;-50
2021/04/03 07:32:56;;;;;;;11.55;2.33;;;21.00;39.60;;;;;;5072191;28;20044;-52
2021/04/03 07:35:23;;;;;;;8.77;2.35;;;21.00;39.70;;;;;;5073919;28;20041;-57
2021/04/03 07:37:51;;;;;;;13.48;3.13;;;20.90;39.50;;;;;;5075599;28;20458;-51
2021/04/03 07:40:22;;;;;;;8.70;3.28;;;21.00;39.50;;;;;;5075322;28;20040;-56
2021/04/03 07:42:48;;;;;;;11.35;3.38;;;21.00;39.60;;;;;;5074042;28;20111;-52
2021/04/03 07:45:40;;;;;;;11.35;2.95;;;21.00;40.30;;;;;;5074487;28;20111;-56
2021/04/03 07:48:14;;;;;;;8.88;3.10;;;21.00;39.60;;;;;;5075078;28;20036;-54
2021/04/03 07:50:40;;;;;;;10.70;3.55;;;20.90;39.60;;;;;;5056976;28;20406;-57
2021/04/03 07:53:07;;;;;;;14.13;4.13;;;21.00;39.70;;;;;;5075011;28;20075;-55
2021/04/03 07:55:35;;;;;;;11.13;3.65;;;21.00;39.70;;;;;;5074913;28;20035;-55
2021/04/03 07:58:19;;;;;;;14.70;3.13;;;21.00;39.60;;;;;;5075360;28;20098;-55
2021/04/03 08:00:48;;;;;;;15.25;3.33;;;21.00;39.60;;;;;;5075157;28;20044;-55
2021/04/03 08:03:19;;;;;;;13.35;3.40;;;21.10;39.80;;;;;;5075081;28;20044;-57
2021/04/03 08:05:46;;;;;;;15.07;3.50;;;21.00;40.00;;;;;;5075559;28;20033;-55
2021/04/03 08:08:11;;;;;;;12.20;3.15;;;21.10;40.20;;;;;;5075273;28;20029;-57
2021/04/03 08:10:37;;;;;;;11.85;3.42;;;21.10;40.20;;;;;;5075032;28;20032;-59
2021/04/03 08:13:03;;;;;;;14.63;3.28;;;21.10;40.10;;;;;;5074863;28;20040;-57
2021/04/03 08:15:29;;;;;;;10.23;3.25;;;21.10;40.20;;;;;;5074829;28;20067;-57
2021/04/03 08:17:55;;;;;;;12.43;3.50;;;21.10;40.10;;;;;;5074854;28;20044;-57
2021/04/03 08:20:21;;;;;;;13.45;3.83;;;21.10;39.90;;;;;;5074737;28;20107;-54
2021/04/03 08:23:06;;;;;;;13.50;3.80;;;21.10;39.60;;;;;;5075053;28;20447;-54
2021/04/03 08:25:34;;;;;;;14.07;3.83;;;21.00;38.40;;;;;;5074697;28;20024;-56
2021/04/03 08:28:18;;;;;;;23.45;4.82;;;20.90;39.20;;;;;;5075348;28;20047;-52
2021/04/03 08:30:44;;;;;;;22.65;4.72;;;20.90;39.90;;;;;;5074518;28;20024;-54
2021/04/03 08:33:12;;;;;;;14.15;3.95;;;20.90;39.20;;;;;;5074936;28;20115;-47
2021/04/03 08:35:43;;;;;;;13.63;3.25;;;20.90;39.00;;;;;;5074765;28;20051;-51
2021/04/03 08:38:14;;;;;;;13.63;3.90;;;21.00;39.10;;;;;;5074042;28;20510;-55
2021/04/03 08:40:41;;;;;;;11.38;3.38;;;21.00;39.20;;;;;;5074626;28;20035;-53
2021/04/03 08:43:07;;;;;;;13.73;3.97;;;21.00;39.20;;;;;;5074666;28;20036;-51
2021/04/03 08:45:39;;;;;;;11.40;3.45;;;21.00;39.10;;;;;;5074506;28;20123;-52
2021/04/03 08:48:09;;;;;;;12.82;3.38;;;21.00;39.00;;;;;;5075097;28;20040;-52
2021/04/03 08:50:36;;;;;;;14.27;3.55;;;21.00;39.00;;;;;;5074709;28;20378;-48
2021/04/03 08:53:03;;;;;;;13.70;3.83;;;21.10;38.90;;;;;;5074582;28;20037;-50
2021/04/03 08:55:29;;;;;;;12.88;3.30;;;21.10;39.20;;;;;;5074495;28;20098;-52
2021/04/03 08:57:59;;;;;;;10.93;2.85;;;21.10;39.20;;;;;;5074769;28;20045;-53
2021/04/03 09:00:26;;;;;;;9.63;3.30;;;21.20;39.20;;;;;;5074304;28;20032;-51
2021/04/03 09:02:53;;;;;;;7.32;2.50;;;21.20;39.20;;;;;;5076678;28;20040;-53
2021/04/03 09:05:19;;;;;;;8.48;2.78;;;21.20;39.20;;;;;;5078398;28;20024;-52
2021/04/03 09:07:44;;;;;;;9.90;2.50;;;21.30;39.30;;;;;;5078450;28;20041;-53
2021/04/03 09:10:15;;;;;;;14.10;3.42;;;21.30;39.30;;;;;;5078262;28;20032;-51
2021/04/03 09:12:42;;;;;;;8.13;2.88;;;21.30;39.10;;;;;;5078656;28;20203;-52
2021/04/03 09:15:09;;;;;;;10.52;2.90;;;21.30;39.20;;;;;;5078360;28;20028;-51
2021/04/03 09:17:44;;;;;;;9.63;3.20;;;21.30;39.10;;;;;;5078408;28;20094;-48
2021/04/03 09:20:13;;;;;;;11.10;3.15;;;21.40;39.30;;;;;;5078097;28;20115;-51
2021/04/03 09:22:41;;;;;;;11.70;3.08;;;21.40;39.20;;;;;;5078184;28;20120;-57
2021/04/03 09:25:29;;;;;;;10.02;3.35;;;21.40;39.20;;;;;;5078132;28;20033;-50
2021/04/03 09:28:02;;;;;;;9.95;3.30;;;21.40;39.20;;;;;;5077619;28;20454;-53
2021/04/03 09:30:34;;;;;;;8.40;2.97;;;21.40;39.00;;;;;;5077899;28;20036;-51
2021/04/03 09:33:14;;;;;;;7.88;3.45;;;21.30;39.20;;;;;;5077969;28;20143;-49
2021/04/03 09:35:39;;;;;;;9.93;3.30;;;21.30;39.10;;;;;;5077905;28;20401;-52
2021/04/03 09:38:05;;;;;;;10.00;2.65;;;21.30;39.20;;;;;;5077900;28;20048;-52
2021/04/03 09:40:43;;;;;;;8.68;2.47;;;21.30;39.20;;;;;;5077798;28;20036;-51
2021/04/03 09:43:14;;;;;;;7.10;2.75;;;21.30;39.30;;;;;;5078232;28;20099;-52
2021/04/03 09:45:40;;;;;;;8.40;2.78;;;21.40;39.20;;;;;;5077392;28;20119;-47
2021/04/03 09:48:08;;;;;;;8.60;3.10;;;21.40;39.00;;;;;;5076901;28;20079;-52
2021/04/03 09:50:34;;;;;;;8.02;2.60;;;21.40;39.20;;;;;;5077960;28;20033;-54
2021/04/03 09:53:11;;;;;;;7.18;2.80;;;21.40;39.30;;;;;;5076837;28;20036;-49
2021/04/03 09:55:37;;;;;;;8.95;2.67;;;21.50;39.20;;;;;;5077466;28;20044;-56
2021/04/03 09:58:03;;;;;;;8.10;2.60;;;21.50;38.90;;;;;;5077111;28;20099;-57
2021/04/03 10:00:29;;;;;;;8.88;3.13;;;21.50;38.90;;;;;;5077351;28;20417;-51
2021/04/03 10:02:54;;;;;;;16.35;3.38;;;21.50;38.80;;;;;;5077125;28;20064;-48
2021/04/03 10:05:20;;;;;;;12.93;3.45;;;21.50;38.90;;;;;;5077299;28;20032;-52
2021/04/03 10:07:46;;;;;;;13.68;3.78;;;21.50;38.50;;;;;;5059399;28;20075;-54
2021/04/03 10:10:11;;;;;;;12.50;3.53;;;21.50;37.90;;;;;;5076927;28;20052;-53
2021/04/03 10:12:37;;;;;;;10.82;3.45;;;21.40;37.00;;;;;;5077229;28;20032;-53
2021/04/03 10:15:03;;;;;;;14.65;3.20;;;21.20;37.00;;;;;;5076367;28;20052;-49
2021/04/03 10:17:28;;;;;;;11.57;3.25;;;21.10;37.60;;;;;;5076241;28;20075;-49
2021/04/03 10:19:54;;;;;;;8.70;3.05;;;21.10;37.80;;;;;;5077229;28;20431;-52
2021/04/03 10:22:19;;;;;;;20.13;3.92;;;21.10;37.70;;;;;;5077201;28;20090;-51
2021/04/03 10:24:45;;;;;;;8.40;3.13;;;21.20;37.60;;;;;;5076901;28;20040;-52
2021/04/03 10:27:10;;;;;;;13.75;3.70;;;21.20;37.60;;;;;;5076263;28;20509;-50
2021/04/03 10:29:36;;;;;;;14.25;3.30;;;21.10;35.90;;;;;;5075706;28;20032;-52
2021/04/03 10:32:02;;;;;;;13.43;3.92;;;20.90;35.00;;;;;;5077075;28;20342;-49
2021/04/03 10:34:27;;;;;;;14.45;3.47;;;20.60;36.60;;;;;;5076797;28;20033;-48
2021/04/03 10:36:53;;;;;;;9.85;2.78;;;20.50;37.20;;;;;;5076659;28;20029;-49
2021/04/03 10:39:18;;;;;;;8.68;3.22;;;20.60;37.40;;;;;;5076491;28;20039;-51
2021/04/03 10:41:44;;;;;;;9.43;3.00;;;20.60;37.30;;;;;;5076970;28;20044;-51
2021/04/03 10:44:09;;;;;;;9.55;2.80;;;20.70;37.20;;;;;;5076718;28;20036;-49
2021/04/03 10:46:35;;;;;;;10.55;3.00;;;20.80;37.20;;;;;;5076642;28;20068;-50
2021/04/03 10:49:00;;;;;;;9.95;3.22;;;20.90;37.10;;;;;;5076777;28;20413;-49
2021/04/03 10:51:26;;;;;;;6.82;2.75;;;21.00;36.90;;;;;;5076571;28;20036;-53
2021/04/03 10:53:51;;;;;;;9.88;2.75;;;21.00;36.80;;;;;;5076154;28;20028;-50
2021/04/03 10:56:18;;;;;;;10.45;2.75;;;21.10;36.70;;;;;;5076538;28;20477;-52
2021/04/03 10:58:45;;;;;;;10.02;2.70;;;21.10;36.70;;;;;;5076213;28;20047;-52
2021/04/03 11:01:11;;;;;;;8.50;2.45;;;21.20;36.70;;;;;;5076301;28;20024;-58
2021/04/03 11:03:37;;;;;;;8.20;2.70;;;21.20;36.70;;;;;;5076321;28;20054;-51
2021/04/03 11:06:02;;;;;;;10.90;3.22;;;21.20;36.60;;;;;;5075996;28;20487;-49
2021/04/03 11:08:29;;;;;;;9.30;3.28;;;21.20;36.30;;;;;;5071882;28;20499;-53
2021/04/03 11:10:55;;;;;;;9.48;3.17;;;21.30;36.90;;;;;;5071875;28;20512;-52
2021/04/03 11:13:20;;;;;;;10.63;3.60;;;21.30;37.00;;;;;;5073382;28;20032;-54
2021/04/03 11:15:47;;;;;;;9.07;2.92;;;21.30;36.40;;;;;;5071675;28;20041;-56
2021/04/03 11:18:13;;;;;;;11.00;3.00;;;21.30;36.80;;;;;;5072663;28;20040;-53
2021/04/03 11:20:38;;;;;;;8.68;3.05;;;21.30;37.20;;;;;;5075050;28;20431;-53
2021/04/03 11:23:04;;;;;;;10.13;3.30;;;21.40;37.40;;;;;;5075473;28;20056;-51
2021/04/03 11:25:29;;;;;;;8.25;3.05;;;21.40;37.60;;;;;;5076296;28;20033;-50
2021/04/03 11:27:55;;;;;;;7.78;2.92;;;21.50;37.80;;;;;;5075423;28;20029;-55
2021/04/03 11:30:21;;;;;;;8.60;2.90;;;21.50;37.50;;;;;;5075804;28;20037;-53
2021/04/03 11:32:49;;;;;;;7.18;2.40;;;21.60;37.20;;;;;;5058080;28;20316;-54
2021/04/03 11:35:16;;;;;;;9.18;2.75;;;21.50;37.20;;;;;;5075508;28;20028;-55
2021/04/03 11:37:43;;;;;;;7.78;2.85;;;21.60;37.10;;;;;;5075658;28;20033;-57
2021/04/03 11:40:09;;;;;;;7.63;2.47;;;21.60;36.70;;;;;;5075992;28;20028;-60
2021/04/03 11:42:36;;;;;;;9.55;2.63;;;21.60;37.10;;;;;;5075133;28;20020;-55
2021/04/03 11:45:02;;;;;;;11.25;2.88;;;21.60;37.40;;;;;;5075390;28;20446;-52
2021/04/03 11:47:28;;;;;;;7.80;2.50;;;21.60;37.40;;;;;;5075659;28;20040;-55
2021/04/03 11:49:57;;;;;;;6.32;2.60;;;21.60;37.50;;;;;;5075261;28;20037;-58
2021/04/03 11:52:23;;;;;;;6.65;2.40;;;21.70;37.70;;;;;;5075159;28;20441;-54
2021/04/03 11:54:50;;;;;;;8.10;3.10;;;21.70;37.70;;;;;;5075338;28;20037;-56
2021/04/03 11:57:15;;;;;;;9.55;2.65;;;21.70;37.60;;;;;;5075235;28;20051;-57
2021/04/03 11:59:41;;;;;;;7.50;2.88;;;21.70;37.20;;;;;;5075154;28;20037;-62
2021/04/03 12:02:07;;;;;;;7.85;2.75;;;21.70;36.60;;;;;;5075384;28;20067;-52
2021/04/03 12:04:32;;;;;;;8.57;2.65;;;21.70;36.90;;;;;;5074558;28;20054;-58
2021/04/03 12:06:58;;;;;;;11.27;3.35;;;21.70;36.80;;;;;;5074740;28;20031;-59
2021/04/03 12:09:23;;;;;;;9.65;2.60;;;21.70;36.80;;;;;;5075555;28;20108;-55
2021/04/03 12:11:49;;;;;;;9.90;2.90;;;21.70;36.80;;;;;;5075073;28;20106;-58
2021/04/03 12:14:14;;;;;;;14.95;2.88;;;21.70;36.80;;;;;;5074980;28;20112;-56
2021/04/03 12:16:40;;;;;;;11.90;3.05;;;21.70;36.60;;;;;;5074577;28;20075;-57
2021/04/03 12:19:05;;;;;;;8.15;2.85;;;21.70;36.80;;;;;;5074828;28;20052;-58
2021/04/03 12:21:31;;;;;;;12.10;2.90;;;21.70;36.80;;;;;;5074980;28;20045;-55
2021/04/03 12:23:56;;;;;;;6.03;2.90;;;21.70;37.00;;;;;;5074993;28;20059;-58
2021/04/03 12:26:22;;;;;;;6.85;2.33;;;21.70;36.90;;;;;;5074839;28;20076;-55
2021/04/03 12:28:48;;;;;;;10.02;2.60;;;21.70;36.70;;;;;;5075225;28;20044;-52
2021/04/03 12:31:14;;;;;;;6.13;2.25;;;21.70;36.60;;;;;;5074596;28;20116;-57
2021/04/03 12:33:40;;;;;;;9.30;2.78;;;21.70;36.50;;;;;;5074831;28;20178;-53
2021/04/03 12:36:06;;;;;;;5.75;2.58;;;21.70;36.90;;;;;;5074037;28;20514;-57
2021/04/03 12:38:32;;;;;;;6.93;3.08;;;21.70;37.00;;;;;;5074183;28;20051;-54
2021/04/03 12:40:58;;;;;;;9.32;2.72;;;21.70;37.10;;;;;;5074659;28;20037;-55
2021/04/03 12:43:23;;;;;;;5.55;2.60;;;21.70;36.70;;;;;;5075041;28;20458;-57
2021/04/03 12:45:49;;;;;;;7.50;2.63;;;21.70;36.90;;;;;;5074599;28;20033;-56
2021/04/03 12:48:14;;;;;;;7.40;2.75;;;21.70;36.80;;;;;;5074646;28;20397;-56
2021/04/03 12:50:40;;;;;;;5.57;2.17;;;21.70;37.00;;;;;;5073992;28;20029;-56
2021/04/03 12:53:05;;;;;;;9.93;2.65;;;21.70;37.20;;;;;;5074517;28;20040;-54
2021/04/03 12:55:31;;;;;;;6.82;2.58;;;21.70;37.00;;;;;;5073649;28;20449;-54
2021/04/03 12:57:57;;;;;;;4.45;2.00;;;21.70;37.10;;;;;;5074710;28;20036;-54
2021/04/03 13:00:23;;;;;;;4.47;2.22;;;21.80;37.30;;;;;;5072931;28;20063;-53
2021/04/03 13:02:48;;;;;;;5.38;2.03;;;21.70;37.10;;;;;;5074478;28;20064;-55
2021/04/03 13:05:14;;;;;;;7.07;2.80;;;21.70;37.10;;;;;;5074072;28;20028;-55
2021/04/03 13:07:39;;;;;;;6.07;2.55;;;21.70;37.30;;;;;;5074964;28;20051;-53
2021/04/03 13:10:06;;;;;;;4.82;2.17;;;21.70;37.30;;;;;;5074570;28;20040;-56
2021/04/03 13:12:31;;;;;;;7.53;2.38;;;21.70;37.40;;;;;;5074635;28;20043;-53
2021/04/03 13:14:57;;;;;;;4.85;2.38;;;21.70;37.30;;;;;;5074027;28;20362;-58
2021/04/03 13:17:22;;;;;;;5.75;2.15;;;21.70;37.10;;;;;;5056436;28;20149;-56
2021/04/03 13:19:48;;;;;;;6.85;2.53;;;21.70;37.20;;;;;;5073977;28;20036;-51
2021/04/03 13:22:13;;;;;;;7.45;2.58;;;21.70;37.00;;;;;;5074733;28;20036;-58
2021/04/03 13:24:39;;;;;;;6.35;2.08;;;21.70;36.90;;;;;;5074383;28;20139;-53
2021/04/03 13:27:05;;;;;;;6.57;1.90;;;21.60;36.80;;;;;;5074559;28;20032;-48
2021/04/03 13:29:30;;;;;;;5.85;2.33;;;21.60;36.90;;;;;;5074215;28;20469;-52
2021/04/03 13:31:56;;;;;;;5.05;1.90;;;21.60;37.00;;;;;;5074315;28;20036;-57
2021/04/03 13:34:21;;;;;;;5.60;1.88;;;21.60;37.10;;;;;;5073888;28;20044;-58
2021/04/03 13:36:47;;;;;;;7.15;2.38;;;21.60;37.10;;;;;;5074182;28;20100;-56
2021/04/03 13:39:13;;;;;;;7.32;2.30;;;21.60;37.10;;;;;;5073146;28;20390;-52
2021/04/03 13:41:39;;;;;;;7.45;2.40;;;21.60;37.00;;;;;;5074017;28;20435;-56
2021/04/03 13:44:05;;;;;;;6.57;2.47;;;21.60;36.80;;;;;;5074274;28;20359;-54
2021/04/03 13:46:31;;;;;;;7.55;2.28;;;21.60;37.50;;;;;;5073252;28;20047;-56
2021/04/03 13:48:56;;;;;;;6.18;2.22;;;21.60;38.10;;;;;;5074558;28;20036;-57
2021/04/03 13:51:22;;;;;;;6.25;2.08;;;21.60;38.40;;;;;;5078033;28;20028;-55
2021/04/03 13:53:47;;;;;;;7.07;2.30;;;21.60;38.50;;;;;;5077563;28;20036;-55
2021/04/03 13:56:13;;;;;;;4.43;2.05;;;21.60;38.90;;;;;;5077245;28;20032;-52
2021/04/03 13:58:38;;;;;;;3.05;1.42;;;21.60;39.00;;;;;;5077492;28;20049;-57
2021/04/03 14:01:04;;;;;;;7.68;2.10;;;21.60;39.20;;;;;;5077509;28;20032;-53
2021/04/03 14:03:30;;;;;;;6.38;1.83;;;21.60;39.40;;;;;;5076975;28;20033;-54
2021/04/03 14:05:56;;;;;;;5.95;2.22;;;21.60;39.00;;;;;;5077235;28;20040;-55
2021/04/03 14:08:21;;;;;;;7.07;2.22;;;21.60;38.60;;;;;;5077561;28;20050;-52
2021/04/03 14:10:47;;;;;;;9.98;2.30;;;21.60;38.50;;;;;;5076914;28;20028;-52
2021/04/03 14:13:13;;;;;;;10.75;2.28;;;21.50;38.50;;;;;;5077309;28;20083;-53
2021/04/03 14:15:38;;;;;;;3.13;1.50;;;21.50;38.70;;;;;;5077184;28;20435;-54
2021/04/03 14:18:04;;;;;;;3.75;1.70;;;21.50;38.80;;;;;;5077115;28;20049;-55
2021/04/03 14:20:30;;;;;;;4.68;1.90;;;21.50;38.50;;;;;;5077056;28;20043;-53
2021/04/03 14:22:55;;;;;;;4.82;1.90;;;21.50;38.30;;;;;;5077145;28;20454;-54
2021/04/03 14:25:21;;;;;;;12.65;2.53;;;21.50;38.30;;;;;;5076852;28;20397;-51
2021/04/03 14:27:48;;;;;;;12.30;2.58;;;21.40;37.80;;;;;;5076938;28;20040;-53
2021/04/03 14:30:14;;;;;;;6.78;1.83;;;21.40;38.30;;;;;;5076883;28;20344;-53
2021/04/03 14:32:39;;;;;;;6.38;2.60;;;21.40;38.80;;;;;;5077005;28;20040;-49
2021/04/03 14:35:05;;;;;;;7.53;2.15;;;21.40;38.70;;;;;;5076786;28;20033;-52
2021/04/03 14:37:32;;;;;;;10.50;2.70;;;21.40;37.70;;;;;;5076863;28;20044;-54
2021/04/03 14:39:57;;;;;;;6.35;2.08;;;21.30;37.20;;;;;;5076821;28;20434;-52
2021/04/03 14:42:23;;;;;;;5.90;1.90;;;21.30;37.50;;;;;;5076447;28;20033;-53
2021/04/03 14:44:48;;;;;;;6.93;2.15;;;21.40;37.50;;;;;;5059045;28;20099;-56
2021/04/03 14:47:14;;;;;;;5.55;1.90;;;21.30;37.30;;;;;;5076583;28;20378;-55
2021/04/03 14:49:39;;;;;;;4.18;1.73;;;21.30;37.50;;;;;;5076515;28;20187;-49
2021/04/03 14:52:05;;;;;;;6.05;2.10;;;21.30;37.60;;;;;;5076242;28;20039;-58
2021/04/03 14:54:31;;;;;;;8.40;2.28;;;21.40;37.50;;;;;;5076503;28;20079;-53
2021/04/03 14:56:56;;;;;;;6.80;2.30;;;21.40;37.40;;;;;;5076536;28;20037;-50
2021/04/03 14:59:24;;;;;;;5.40;1.63;;;21.30;37.40;;;;;;5076151;28;20052;-55
2021/04/03 15:01:50;;;;;;;8.68;2.35;;;21.40;37.40;;;;;;5076322;28;20028;-55
2021/04/03 15:04:16;;;;;;;7.07;1.98;;;21.40;37.40;;;;;;5076445;28;20033;-53
2021/04/03 15:06:41;;;;;;;5.90;2.05;;;21.40;37.60;;;;;;5076278;28;20112;-54
2021/04/03 15:09:07;;;;;;;10.70;2.40;;;21.40;37.80;;;;;;5076412;28;20474;-51
2021/04/03 15:11:32;;;;;;;7.40;2.20;;;21.20;37.00;;;;;;5058532;28;20183;-51
2021/04/03 15:13:58;;;;;;;7.75;2.28;;;21.20;37.50;;;;;;5076303;28;20047;-53
2021/04/03 15:16:23;;;;;;;7.78;2.28;;;21.20;37.70;;;;;;5076328;28;20048;-50
2021/04/03 15:18:49;;;;;;;6.93;2.50;;;21.20;37.80;;;;;;5075842;28;20041;-54
2021/04/03 15:21:14;;;;;;;7.30;2.13;;;21.20;37.80;;;;;;5074908;28;20111;-53
2021/04/03 15:23:41;;;;;;;7.15;2.40;;;21.20;38.00;;;;;;5075795;28;20075;-54
2021/04/03 15:26:07;;;;;;;4.30;1.88;;;21.20;38.10;;;;;;5075748;28;20040;-50
2021/04/03 15:28:33;;;;;;;6.47;1.77;;;21.20;38.30;;;;;;5075921;28;20120;-54
2021/04/03 15:30:58;;;;;;;5.90;2.00;;;21.20;38.20;;;;;;5075345;28;20056;-54
2021/04/03 15:33:24;;;;;;;5.13;2.15;;;21.20;38.30;;;;;;5072964;28;20064;-52
2021/04/03 15:35:50;;;;;;;5.72;2.10;;;21.20;38.50;;;;;;5073659;28;20032;-54
2021/04/03 15:38:15;;;;;;;7.90;2.30;;;21.30;39.10;;;;;;5075437;28;20045;-46
2021/04/03 15:40:41;;;;;;;8.13;2.45;;;21.20;39.70;;;;;;5075052;28;20036;-58
2021/04/03 15:43:08;;;;;;;6.85;2.25;;;21.30;39.30;;;;;;5075233;28;20033;-52
2021/04/03 15:45:34;;;;;;;7.00;2.38;;;21.30;39.30;;;;;;5075576;28;20056;-48
2021/04/03 15:48:00;;;;;;;10.93;2.83;;;21.30;39.20;;;;;;5074895;28;20135;-47
2021/04/03 15:50:25;;;;;;;14.27;2.42;;;21.20;38.70;;;;;;5075475;28;20463;-50
2021/04/03 15:52:51;;;;;;;14.95;2.72;;;21.30;39.10;;;;;;5075199;28;20036;-51
2021/04/03 15:55:16;;;;;;;19.77;3.53;;;21.20;39.00;;;;;;5072470;28;20108;-48
2021/04/03 15:57:42;;;;;;;14.55;2.83;;;21.20;39.00;;;;;;5071151;28;20056;-55
2021/04/03 16:00:08;;;;;;;12.18;2.65;;;21.20;38.70;;;;;;5073559;28;20028;-54
2021/04/03 16:02:33;;;;;;;9.05;2.58;;;21.20;38.60;;;;;;5074956;28;20047;-52
2021/04/03 16:04:59;;;;;;;9.50;2.63;;;21.30;38.70;;;;;;5074743;28;20378;-54
2021/04/03 16:07:24;;;;;;;7.80;2.38;;;21.30;38.50;;;;;;5075086;28;20033;-55
2021/04/03 16:09:50;;;;;;;7.55;2.53;;;21.30;38.40;;;;;;5075139;28;20130;-51
2021/04/03 16:12:15;;;;;;;14.27;3.10;;;21.40;38.00;;;;;;5074013;28;20045;-50
2021/04/03 16:14:41;;;;;;;19.27;3.33;;;21.50;38.00;;;;;;5075209;28;20474;-52
2021/04/03 16:17:07;;;;;;;13.65;2.95;;;21.50;38.80;;;;;;5074563;28;20052;-54
2021/04/03 16:19:33;;;;;;;9.52;2.70;;;21.60;37.60;;;;;;5074965;28;20029;-53
2021/04/03 16:21:58;;;;;;;12.05;3.05;;;21.70;37.30;;;;;;5075243;28;20127;-52
2021/04/03 16:24:24;;;;;;;17.55;2.28;;;21.70;37.30;;;;;;5074828;28;20083;-55
2021/04/03 16:26:49;;;;;;;12.27;2.58;;;21.80;37.30;;;;;;5074526;28;20370;-53
2021/04/03 16:29:16;;;;;;;11.35;3.30;;;21.80;37.30;;;;;;5074886;28;20067;-51
2021/04/03 16:31:41;;;;;;;12.10;3.28;;;21.80;37.40;;;;;;5074486;28;20075;-47
2021/04/03 16:34:07;;;;;;;13.45;3.25;;;21.90;37.40;;;;;;5074865;28;20048;-51
2021/04/03 16:36:33;;;;;;;13.63;3.35;;;21.90;37.40;;;;;;5075014;28;20032;-53
2021/04/03 16:38:59;;;;;;;11.55;3.03;;;21.90;37.60;;;;;;5074662;28;20040;-50
2021/04/03 16:41:24;;;;;;;11.98;3.65;;;22.00;37.80;;;;;;5074552;28;20037;-52
2021/04/03 16:43:50;;;;;;;9.80;2.88;;;22.00;38.20;;;;;;5074377;28;20040;-53
2021/04/03 16:46:16;;;;;;;11.43;3.45;;;22.10;38.70;;;;;;5074332;28;20420;-54
2021/04/03 16:48:42;;;;;;;9.52;3.20;;;22.20;39.00;;;;;;5074295;28;20041;-52
2021/04/03 16:51:08;;;;;;;11.32;3.20;;;22.30;39.30;;;;;;5074490;28;20350;-50
2021/04/03 16:53:33;;;;;;;8.27;2.90;;;22.40;39.60;;;;;;5074710;28;20037;-53
2021/04/03 16:55:59;;;;;;;9.20;3.22;;;22.40;39.60;;;;;;5073484;28;20032;-47
2021/04/03 16:58:24;;;;;;;7.00;2.63;;;22.40;39.70;;;;;;5074405;28;20462;-50
2021/04/03 17:00:50;;;;;;;8.63;3.00;;;22.50;39.90;;;;;;5074134;28;20033;-54
2021/04/03 17:03:15;;;;;;;4.95;3.00;;;22.50;40.00;;;;;;5074646;28;20447;-50
2021/04/03 17:05:41;;;;;;;7.03;2.33;;;22.50;40.20;;;;;;5074506;28;20036;-51
2021/04/03 17:08:06;;;;;;;9.65;2.53;;;22.50;40.30;;;;;;5074437;28;20033;-51
2021/04/03 17:10:32;;;;;;;9.05;2.72;;;22.50;40.40;;;;;;5074474;28;20037;-55
2021/04/03 17:12:58;;;;;;;11.30;2.78;;;22.50;40.50;;;;;;5074356;28;20036;-48
2021/04/03 17:15:23;;;;;;;11.40;3.83;;;22.50;40.60;;;;;;5073194;28;20158;-49
2021/04/03 17:17:49;;;;;;;9.73;3.17;;;22.60;40.60;;;;;;5073743;28;20044;-52
2021/04/03 17:20:17;;;;;;;7.70;2.28;;;22.50;40.50;;;;;;5074418;28;20032;-51
2021/04/03 17:22:44;;;;;;;8.32;2.28;;;22.50;40.60;;;;;;5074532;28;20044;-53
2021/04/03 17:25:10;;;;;;;8.93;2.60;;;22.60;40.70;;;;;;5077994;28;20040;-51
2021/04/03 17:27:36;;;;;;;8.95;2.28;;;22.60;40.80;;;;;;5078049;28;20044;-54
2021/04/03 17:30:02;;;;;;;8.23;2.50;;;22.60;40.80;;;;;;5077845;28;20059;-53
2021/04/03 17:32:28;;;;;;;10.45;3.05;;;22.60;40.90;;;;;;5077904;28;20363;-53
2021/04/03 17:34:53;;;;;;;9.68;2.78;;;22.70;41.10;;;;;;5060242;28;20086;-53
2021/04/03 17:37:19;;;;;;;8.93;2.17;;;22.70;41.20;;;;;;5077920;28;20040;-49
2021/04/03 17:39:45;;;;;;;8.05;1.92;;;22.70;41.20;;;;;;5077569;28;20457;-54
2021/04/03 17:42:10;;;;;;;12.13;2.92;;;22.70;41.20;;;;;;5077985;28;20355;-50
2021/04/03 17:44:36;;;;;;;7.55;1.90;;;22.70;41.20;;;;;;5078114;28;20036;-51
2021/04/03 17:47:03;;;;;;;9.20;2.30;;;22.70;41.20;;;;;;5077783;28;20045;-53
2021/04/03 17:49:29;;;;;;;9.40;2.30;;;22.70;41.20;;;;;;5077768;28;20058;-55
2021/04/03 17:51:56;;;;;;;6.45;1.63;;;22.70;41.30;;;;;;5077672;28;20029;-55
2021/04/03 17:54:21;;;;;;;7.43;2.30;;;22.70;41.30;;;;;;5077160;28;20473;-51
2021/04/03 17:56:47;;;;;;;8.85;2.30;;;22.70;41.30;;;;;;5077330;28;20112;-50